createdAt,value
2023-04-09T00:02:06.606Z,44.50
2023-04-09T00:04:33.697Z,44.90
2023-04-09T00:07:01.069Z,48.40
2023-04-09T00:09:28.142Z,50.97
2023-04-09T00:11:56.394Z,52.77
2023-04-09T00:14:23.472Z,48.70
2023-04-09T00:16:51.042Z,47.00
2023-04-09T00:19:18.118Z,47.77
2023-04-09T00:21:45.273Z,43.70
2023-04-09T00:24:12.717Z,51.10
2023-04-09T00:26:40.032Z,43.77
2023-04-09T00:29:07.122Z,43.57
2023-04-09T00:31:34.311Z,43.17
2023-04-09T00:34:01.619Z,47.30
2023-04-09T00:36:28.777Z,47.53
2023-04-09T00:38:56.139Z,49.10
2023-04-09T00:41:23.251Z,48.30
2023-04-09T00:43:50.465Z,45.90
2023-04-09T00:46:18.583Z,48.17
2023-04-09T00:48:45.823Z,48.33
2023-04-09T00:51:12.924Z,53.53
2023-04-09T00:53:40.803Z,47.67
2023-04-09T00:56:08.348Z,47.07
2023-04-09T00:58:35.882Z,45.43
2023-04-09T01:01:03.463Z,45.00
2023-04-09T01:03:30.799Z,50.20
2023-04-09T01:06:18.255Z,48.20
2023-04-09T01:09:02.351Z,54.40
2023-04-09T01:11:47.214Z,45.03
2023-04-09T01:14:20.476Z,46.20
2023-04-09T01:17:05.289Z,41.17
2023-04-09T01:19:46.366Z,46.97
2023-04-09T01:22:57.976Z,41.47
2023-04-09T01:26:11.295Z,40.97
2023-04-09T01:28:51.900Z,45.57
2023-04-09T01:31:20.932Z,41.53
2023-04-09T01:33:48.211Z,45.60
2023-04-09T01:36:15.771Z,44.07
2023-04-09T01:38:45.477Z,40.23
2023-04-09T01:41:18.713Z,44.83
2023-04-09T01:43:46.637Z,43.57
2023-04-09T01:46:14.264Z,40.53
2023-04-09T01:48:42.339Z,48.90
2023-04-09T01:51:09.851Z,41.23
2023-04-09T01:53:36.905Z,47.10
2023-04-09T01:56:04.391Z,41.10
2023-04-09T01:58:34.185Z,54.23
2023-04-09T02:01:14.660Z,44.60
2023-04-09T02:03:48.019Z,42.90
2023-04-09T02:06:42.884Z,48.60
2023-04-09T02:09:10.552Z,40.27
2023-04-09T02:11:41.063Z,42.77
2023-04-09T02:14:11.287Z,47.57
2023-04-09T02:16:40.294Z,44.43
2023-04-09T02:19:07.428Z,46.17
2023-04-09T02:21:34.802Z,50.60
2023-04-09T02:24:01.919Z,47.73
2023-04-09T02:26:29.016Z,44.13
2023-04-09T02:28:56.122Z,45.27
2023-04-09T02:31:23.271Z,42.90
2023-04-09T02:33:51.031Z,45.60
2023-04-09T02:36:18.129Z,43.43
2023-04-09T02:38:45.614Z,42.90
2023-04-09T02:41:12.820Z,43.43
2023-04-09T02:43:39.930Z,45.47
2023-04-09T02:46:07.827Z,40.50
2023-04-09T02:48:35.787Z,38.37
2023-04-09T02:51:06.386Z,37.67
2023-04-09T02:53:33.671Z,43.10
2023-04-09T02:56:00.798Z,41.80
2023-04-09T02:58:27.905Z,43.30
2023-04-09T03:00:55.014Z,47.57
2023-04-09T03:03:22.283Z,42.07
2023-04-09T03:05:49.535Z,45.03
2023-04-09T03:08:16.719Z,44.77
2023-04-09T03:10:43.856Z,45.30
2023-04-09T03:13:11.036Z,48.40
2023-04-09T03:15:38.116Z,38.27
2023-04-09T03:18:05.262Z,43.40
2023-04-09T03:20:32.400Z,44.80
2023-04-09T03:22:59.480Z,43.70
2023-04-09T03:25:34.862Z,39.90
2023-04-09T03:28:10.736Z,46.70
2023-04-09T03:30:51.373Z,44.47
2023-04-09T03:33:19.657Z,46.00
2023-04-09T03:35:52.584Z,47.77
2023-04-09T03:38:29.680Z,42.57
2023-04-09T03:40:59.225Z,52.30
2023-04-09T03:43:27.537Z,41.27
2023-04-09T03:45:54.988Z,47.10
2023-04-09T03:48:26.028Z,42.90
2023-04-09T03:50:53.983Z,46.40
2023-04-09T03:53:31.775Z,40.43
2023-04-09T03:56:04.045Z,40.40
2023-04-09T03:58:32.580Z,44.37
2023-04-09T04:01:01.466Z,43.10
2023-04-09T04:03:38.060Z,49.97
2023-04-09T04:06:21.263Z,40.60
2023-04-09T04:09:17.940Z,35.10
2023-04-09T04:11:51.495Z,37.90
2023-04-09T04:14:22.742Z,36.83
2023-04-09T04:16:56.674Z,35.57
2023-04-09T04:19:28.525Z,42.67
2023-04-09T04:21:56.786Z,40.37
2023-04-09T04:24:24.402Z,37.97
2023-04-09T04:26:51.802Z,41.50
2023-04-09T04:29:23.661Z,37.80
2023-04-09T04:31:56.713Z,41.93
2023-04-09T04:34:27.016Z,38.73
2023-04-09T04:37:01.927Z,38.23
2023-04-09T04:39:32.193Z,40.43
2023-04-09T04:42:04.185Z,41.17
2023-04-09T04:44:31.420Z,34.13
2023-04-09T04:47:27.865Z,37.23
2023-04-09T04:49:55.148Z,42.33
2023-04-09T04:52:22.734Z,44.17
2023-04-09T04:54:53.293Z,38.67
2023-04-09T04:57:23.474Z,35.70
2023-04-09T04:59:50.614Z,38.40
2023-04-09T05:02:18.599Z,39.47
2023-04-09T05:05:21.680Z,36.13
2023-04-09T05:07:53.467Z,35.30
2023-04-09T05:10:21.899Z,35.13
2023-04-09T05:12:49.855Z,41.53
2023-04-09T05:15:30.862Z,33.60
2023-04-09T05:17:58.390Z,38.67
2023-04-09T05:20:27.815Z,31.70
2023-04-09T05:23:10.766Z,39.30
2023-04-09T05:25:41.895Z,37.30
2023-04-09T05:28:19.470Z,36.27
2023-04-09T05:30:50.567Z,39.00
2023-04-09T05:33:18.907Z,37.20
2023-04-09T05:35:46.194Z,32.20
2023-04-09T05:38:14.154Z,36.30
2023-04-09T05:40:45.782Z,36.30
2023-04-09T05:43:13.940Z,35.73
2023-04-09T05:45:43.751Z,33.07
2023-04-09T05:48:11.294Z,30.17
2023-04-09T05:50:51.570Z,32.70
2023-04-09T05:53:24.193Z,33.07
2023-04-09T05:55:51.396Z,30.60
2023-04-09T05:58:21.859Z,31.33
2023-04-09T06:00:51.744Z,31.70
2023-04-09T06:03:19.589Z,31.53
2023-04-09T06:05:48.329Z,29.57
2023-04-09T06:08:15.766Z,32.30
2023-04-09T06:10:43.039Z,32.07
2023-04-09T06:13:10.758Z,33.50
2023-04-09T06:15:41.808Z,32.13
2023-04-09T06:18:09.087Z,30.70
2023-04-09T06:20:36.251Z,35.20
2023-04-09T06:23:03.557Z,35.20
2023-04-09T06:25:30.728Z,36.30
2023-04-09T06:27:57.788Z,38.57
2023-04-09T06:30:25.022Z,39.70
2023-04-09T06:32:54.980Z,36.17
2023-04-09T06:35:23.408Z,35.97
2023-04-09T06:37:50.503Z,34.80
2023-04-09T06:40:18.461Z,34.30
2023-04-09T06:42:46.749Z,34.30
2023-04-09T06:45:22.348Z,38.30
2023-04-09T06:47:50.018Z,34.50
2023-04-09T06:50:17.262Z,35.80
2023-04-09T06:52:44.297Z,32.50
2023-04-09T06:55:11.653Z,35.10
2023-04-09T06:57:43.952Z,31.07
2023-04-09T07:00:12.444Z,33.47
2023-04-09T07:02:40.197Z,34.43
2023-04-09T07:05:08.310Z,37.67
2023-04-09T07:07:41.698Z,35.80
2023-04-09T07:10:12.600Z,38.37
2023-04-09T07:12:40.466Z,35.93
2023-04-09T07:15:08.383Z,32.93
2023-04-09T07:17:36.157Z,34.50
2023-04-09T07:20:04.450Z,36.40
2023-04-09T07:22:50.215Z,37.20
2023-04-09T07:25:17.682Z,35.77
2023-04-09T07:27:44.864Z,33.00
2023-04-09T07:30:12.274Z,39.20
2023-04-09T07:32:58.867Z,36.17
2023-04-09T07:35:56.412Z,37.00
2023-04-09T07:38:23.793Z,37.20
2023-04-09T07:40:51.402Z,35.60
2023-04-09T07:43:19.791Z,40.13
2023-04-09T07:45:51.835Z,34.37
2023-04-09T07:48:18.976Z,34.10
2023-04-09T07:50:46.148Z,35.87
2023-04-09T07:53:13.339Z,35.43
2023-04-09T07:55:42.404Z,29.10
2023-04-09T07:58:09.663Z,30.57
2023-04-09T08:00:36.806Z,37.47
2023-04-09T08:03:04.460Z,34.57
2023-04-09T08:05:31.819Z,28.77
2023-04-09T08:08:05.909Z,31.47
2023-04-09T08:10:35.668Z,33.33
2023-04-09T08:13:03.112Z,36.30
2023-04-09T08:15:30.402Z,37.60
2023-04-09T08:17:57.760Z,40.10
2023-04-09T08:20:25.349Z,35.20
2023-04-09T08:22:52.611Z,36.33
2023-04-09T08:25:19.884Z,35.00
2023-04-09T08:27:47.070Z,33.60
2023-04-09T08:30:14.496Z,29.63
2023-04-09T08:32:42.258Z,25.90
2023-04-09T08:35:10.243Z,30.60
2023-04-09T08:37:37.280Z,32.80
2023-04-09T08:40:04.824Z,30.93
2023-04-09T08:42:34.518Z,31.90
2023-04-09T08:45:05.515Z,32.23
2023-04-09T08:47:35.286Z,29.37
2023-04-09T08:50:02.608Z,25.27
2023-04-09T08:52:36.327Z,27.27
2023-04-09T08:55:07.389Z,30.30
2023-04-09T08:57:41.588Z,29.07
2023-04-09T09:00:09.399Z,37.60
2023-04-09T09:02:37.090Z,26.67
2023-04-09T09:05:04.504Z,26.13
2023-04-09T09:07:32.301Z,26.27
2023-04-09T09:10:03.750Z,24.33
2023-04-09T09:12:40.454Z,22.40
2023-04-09T09:15:31.044Z,23.20
2023-04-09T09:18:00.905Z,20.43
2023-04-09T09:20:29.254Z,28.50
2023-04-09T09:22:57.057Z,29.30
2023-04-09T09:25:26.036Z,28.07
2023-04-09T09:27:54.576Z,30.67
2023-04-09T09:30:27.911Z,31.00
2023-04-09T09:33:10.679Z,31.73
2023-04-09T09:35:57.877Z,31.90
2023-04-09T09:38:25.133Z,32.70
2023-04-09T09:40:52.703Z,30.63
2023-04-09T09:43:19.968Z,30.50
2023-04-09T09:45:48.603Z,32.90
2023-04-09T09:48:16.160Z,32.77
2023-04-09T09:50:46.284Z,29.77
2023-04-09T09:53:14.900Z,26.70
2023-04-09T09:55:46.519Z,30.00
2023-04-09T09:58:22.236Z,32.43
2023-04-09T10:00:52.882Z,31.30
2023-04-09T10:03:32.212Z,28.00
2023-04-09T10:06:01.642Z,28.70
2023-04-09T10:08:30.289Z,30.10
2023-04-09T10:10:57.452Z,27.97
2023-04-09T10:13:46.307Z,28.33
2023-04-09T10:16:14.432Z,27.80
2023-04-09T10:18:43.719Z,26.40
2023-04-09T10:21:44.033Z,25.37
2023-04-09T10:24:11.703Z,28.27
2023-04-09T10:26:42.436Z,26.90
2023-04-09T10:29:13.978Z,26.60
2023-04-09T10:32:07.171Z,33.23
2023-04-09T10:34:43.894Z,27.80
2023-04-09T10:37:25.568Z,30.57
2023-04-09T10:39:54.080Z,28.20
2023-04-09T10:42:43.174Z,26.80
2023-04-09T10:45:14.111Z,31.00
2023-04-09T10:47:43.890Z,30.60
2023-04-09T10:50:28.106Z,33.27
2023-04-09T10:52:57.501Z,32.23
2023-04-09T10:55:41.297Z,29.63
2023-04-09T10:58:13.779Z,31.30
2023-04-09T11:00:46.572Z,30.70
2023-04-09T11:03:31.510Z,30.10
2023-04-09T11:06:10.239Z,27.27
2023-04-09T11:08:38.809Z,32.40
2023-04-09T11:11:06.521Z,34.67
2023-04-09T11:13:34.577Z,30.50
2023-04-09T11:16:06.773Z,29.70
2023-04-09T11:18:37.035Z,32.70
2023-04-09T11:21:04.583Z,27.03
2023-04-09T11:23:33.298Z,30.17
2023-04-09T11:26:01.824Z,29.07
2023-04-09T11:28:28.971Z,24.60
2023-04-09T11:30:55.993Z,28.83
2023-04-09T11:33:23.216Z,27.10
2023-04-09T11:35:51.544Z,29.50
2023-04-09T11:38:19.737Z,27.70
2023-04-09T11:40:51.335Z,28.77
2023-04-09T11:43:21.002Z,28.70
2023-04-09T11:45:48.958Z,27.47
2023-04-09T11:48:21.925Z,31.03
2023-04-09T11:50:49.196Z,29.20
2023-04-09T11:53:23.769Z,27.53
2023-04-09T11:55:58.361Z,29.47
2023-04-09T11:58:26.751Z,27.63
2023-04-09T12:01:00.114Z,27.50
2023-04-09T12:03:33.239Z,26.87
2023-04-09T12:06:04.463Z,24.67
2023-04-09T12:08:37.195Z,26.73
2023-04-09T12:11:16.159Z,25.97
2023-04-09T12:13:48.030Z,23.90
2023-04-09T12:16:20.889Z,24.10
2023-04-09T12:18:50.667Z,24.80
2023-04-09T12:21:19.359Z,25.43
2023-04-09T12:23:46.665Z,24.57
2023-04-09T12:26:16.689Z,24.47
2023-04-09T12:28:44.203Z,26.30
2023-04-09T12:31:12.149Z,22.67
2023-04-09T12:33:40.447Z,21.50
2023-04-09T12:36:13.424Z,23.70
2023-04-09T12:38:43.765Z,23.33
2023-04-09T12:41:13.706Z,22.17
2023-04-09T12:43:42.759Z,19.43
2023-04-09T12:46:14.302Z,19.63
2023-04-09T12:48:44.057Z,20.30
2023-04-09T12:51:19.477Z,21.60
2023-04-09T12:53:49.698Z,22.70
2023-04-09T12:56:16.860Z,25.00
2023-04-09T12:58:44.050Z,22.80
2023-04-09T13:01:13.475Z,23.63
2023-04-09T13:03:43.352Z,23.13
2023-04-09T13:06:10.482Z,19.97
2023-04-09T13:08:37.737Z,20.10
2023-04-09T13:11:05.237Z,17.87
2023-04-09T13:13:32.436Z,14.67
2023-04-09T13:15:59.755Z,17.40
2023-04-09T13:18:28.188Z,17.83
2023-04-09T13:20:55.547Z,19.43
2023-04-09T13:23:22.696Z,18.30
2023-04-09T13:25:49.885Z,19.47
2023-04-09T13:28:17.080Z,22.23
2023-04-09T13:30:44.486Z,20.80
2023-04-09T13:33:11.710Z,20.43
2023-04-09T13:35:38.869Z,19.37
2023-04-09T13:38:06.114Z,19.10
2023-04-09T13:40:33.443Z,18.00
2023-04-09T13:43:01.107Z,21.27
2023-04-09T13:45:28.394Z,18.87
2023-04-09T13:47:55.579Z,18.27
2023-04-09T13:50:22.739Z,20.13
2023-04-09T13:52:49.970Z,19.10
2023-04-09T13:55:17.256Z,20.00
2023-04-09T13:57:44.326Z,19.13
2023-04-09T14:00:12.003Z,17.63
2023-04-09T14:02:39.238Z,19.40
2023-04-09T14:05:07.007Z,19.00
2023-04-09T14:07:34.148Z,22.17
2023-04-09T14:10:01.393Z,22.40
2023-04-09T14:12:28.535Z,22.53
2023-04-09T14:14:58.139Z,20.73
2023-04-09T14:17:26.551Z,20.13
2023-04-09T14:19:53.762Z,18.10
2023-04-09T14:22:21.041Z,17.83
2023-04-09T14:24:48.084Z,19.03
2023-04-09T14:27:15.745Z,18.33
2023-04-09T14:29:43.170Z,18.20
2023-04-09T14:32:10.408Z,18.63
2023-04-09T14:34:37.445Z,18.33
2023-04-09T14:37:04.520Z,17.17
2023-04-09T14:39:31.849Z,16.90
2023-04-09T14:41:59.252Z,17.63
2023-04-09T14:44:27.388Z,16.07
2023-04-09T14:46:55.306Z,15.90
2023-04-09T14:49:28.529Z,17.13
2023-04-09T14:51:57.044Z,18.97
2023-04-09T14:54:25.848Z,14.57
2023-04-09T14:56:53.448Z,17.50
2023-04-09T14:59:20.901Z,17.27
2023-04-09T15:01:48.118Z,15.27
2023-04-09T15:04:15.756Z,23.57
2023-04-09T15:06:43.057Z,16.10
2023-04-09T15:09:10.358Z,16.10
2023-04-09T15:11:37.534Z,15.23
2023-04-09T15:14:04.892Z,14.80
2023-04-09T15:16:37.433Z,13.93
2023-04-09T15:19:04.722Z,14.03
2023-04-09T15:21:31.907Z,12.50
2023-04-09T15:23:59.159Z,12.80
2023-04-09T15:26:27.510Z,9.60
2023-04-09T15:29:08.445Z,8.63
2023-04-09T15:31:36.322Z,9.03
2023-04-09T15:34:03.615Z,9.23
2023-04-09T15:36:31.591Z,7.83
2023-04-09T15:38:58.860Z,8.93
2023-04-09T15:41:26.989Z,7.97
2023-04-09T15:43:54.107Z,7.47
2023-04-09T15:46:21.331Z,8.30
2023-04-09T15:48:48.611Z,8.53
2023-04-09T15:51:16.845Z,10.10
2023-04-09T15:53:44.061Z,10.27
2023-04-09T15:56:17.225Z,9.73
2023-04-09T15:58:44.570Z,9.20
2023-04-09T16:01:12.888Z,10.30
2023-04-09T16:03:41.304Z,11.00
2023-04-09T16:06:14.795Z,10.97
2023-04-09T16:08:45.172Z,9.87
2023-04-09T16:11:12.905Z,10.23
2023-04-09T16:13:40.203Z,10.80
2023-04-09T16:16:07.964Z,9.30
2023-04-09T16:18:35.623Z,9.73
2023-04-09T16:21:02.830Z,11.83
2023-04-09T16:23:30.825Z,13.73
2023-04-09T16:25:58.189Z,13.10
2023-04-09T16:28:26.638Z,13.70
2023-04-09T16:30:54.104Z,13.93
2023-04-09T16:33:21.258Z,13.57
2023-04-09T16:35:48.568Z,14.63
2023-04-09T16:38:15.946Z,15.97
2023-04-09T16:40:43.957Z,18.67
2023-04-09T16:43:11.674Z,17.37
2023-04-09T16:45:39.009Z,17.77
2023-04-09T16:48:11.620Z,20.77
2023-04-09T16:50:40.407Z,18.60
2023-04-09T16:53:08.598Z,17.50
2023-04-09T16:55:36.229Z,18.80
2023-04-09T16:58:03.458Z,20.10
2023-04-09T17:00:30.888Z,19.40
2023-04-09T17:02:58.115Z,20.07
2023-04-09T17:05:25.656Z,19.83
2023-04-09T17:07:53.673Z,19.07
2023-04-09T17:10:20.892Z,22.30
2023-04-09T17:12:48.597Z,20.17
2023-04-09T17:15:16.147Z,21.03
2023-04-09T17:17:44.758Z,20.30
2023-04-09T17:20:12.875Z,21.90
2023-04-09T17:22:40.178Z,21.27
2023-04-09T17:25:07.890Z,17.40
2023-04-09T17:27:34.976Z,22.10
2023-04-09T17:30:04.297Z,21.37
2023-04-09T17:32:31.580Z,24.10
2023-04-09T17:34:59.680Z,20.63
2023-04-09T17:37:29.836Z,20.93
2023-04-09T17:39:57.110Z,21.10
2023-04-09T17:42:24.647Z,20.37
2023-04-09T17:44:51.982Z,20.70
2023-04-09T17:47:19.219Z,19.30
2023-04-09T17:49:46.298Z,23.17
2023-04-09T17:52:14.752Z,20.80
2023-04-09T17:54:45.376Z,22.60
2023-04-09T17:57:12.732Z,26.17
2023-04-09T17:59:39.826Z,24.97
2023-04-09T18:02:07.457Z,23.50
2023-04-09T18:04:35.587Z,25.07
2023-04-09T18:07:03.937Z,21.87
2023-04-09T18:09:31.249Z,23.90
2023-04-09T18:12:00.161Z,24.73
2023-04-09T18:14:27.318Z,25.80
2023-04-09T18:16:54.458Z,27.00
2023-04-09T18:19:21.756Z,40.30
2023-04-09T18:21:48.977Z,34.70
2023-04-09T18:24:16.142Z,36.97
2023-04-09T18:26:43.226Z,32.40
2023-04-09T18:29:10.356Z,35.67
2023-04-09T18:31:37.495Z,37.00
2023-04-09T18:34:04.840Z,34.30
2023-04-09T18:36:31.914Z,35.07
2023-04-09T18:38:59.207Z,39.20
2023-04-09T18:41:27.164Z,48.63
2023-04-09T18:43:54.862Z,45.00
2023-04-09T18:46:23.011Z,51.90
2023-04-09T18:48:50.543Z,42.97
2023-04-09T18:51:19.627Z,78.10
2023-04-09T18:53:52.921Z,56.97
2023-04-09T18:56:21.146Z,48.57
2023-04-09T18:58:48.837Z,44.20
2023-04-09T19:01:17.502Z,42.23
2023-04-09T19:03:45.408Z,44.93
2023-04-09T19:06:15.189Z,38.87
2023-04-09T19:08:42.506Z,41.93
2023-04-09T19:11:09.816Z,46.60
2023-04-09T19:13:38.312Z,53.93
2023-04-09T19:16:09.729Z,47.70
2023-04-09T19:18:38.037Z,47.80
2023-04-09T19:21:08.733Z,61.70
2023-04-09T19:23:36.214Z,58.07
2023-04-09T19:26:05.570Z,60.13
2023-04-09T19:28:32.964Z,58.40
2023-04-09T19:31:02.835Z,52.37
2023-04-09T19:33:30.957Z,46.43
2023-04-09T19:36:01.524Z,48.47
2023-04-09T19:38:28.708Z,44.40
2023-04-09T19:40:55.904Z,60.90
2023-04-09T19:43:23.331Z,52.50
2023-04-09T19:45:50.737Z,43.03
2023-04-09T19:48:18.188Z,36.97
2023-04-09T19:50:46.208Z,38.13
2023-04-09T19:53:13.605Z,40.23
2023-04-09T19:55:41.471Z,39.67
2023-04-09T19:58:08.793Z,38.83
2023-04-09T20:00:36.147Z,38.93
2023-04-09T20:03:05.809Z,38.93
2023-04-09T20:05:33.460Z,42.20
2023-04-09T20:08:00.816Z,46.97
2023-04-09T20:10:28.131Z,50.67
2023-04-09T20:12:55.682Z,47.43
2023-04-09T20:15:23.048Z,41.87
2023-04-09T20:17:51.453Z,39.50
2023-04-09T20:20:20.099Z,43.07
2023-04-09T20:22:55.545Z,46.20
2023-04-09T20:25:24.872Z,38.43
2023-04-09T20:27:55.935Z,40.43
2023-04-09T20:30:23.198Z,44.80
2023-04-09T20:32:50.411Z,32.10
2023-04-09T20:35:17.662Z,37.10
2023-04-09T20:38:02.095Z,38.37
2023-04-09T20:40:30.831Z,38.30
2023-04-09T20:42:58.075Z,36.07
2023-04-09T20:45:25.325Z,46.57
2023-04-09T20:47:53.219Z,43.70
2023-04-09T20:50:20.521Z,43.17
2023-04-09T20:52:47.973Z,41.83
2023-04-09T20:55:18.048Z,42.53
2023-04-09T20:57:45.161Z,40.77
2023-04-09T21:00:13.114Z,47.03
2023-04-09T21:02:41.215Z,49.80
2023-04-09T21:05:21.753Z,43.27
2023-04-09T21:07:50.794Z,47.37
2023-04-09T21:10:18.225Z,45.63
2023-04-09T21:12:45.684Z,47.20
2023-04-09T21:15:12.836Z,46.80
2023-04-09T21:17:39.908Z,51.03
2023-04-09T21:20:08.702Z,48.57
2023-04-09T21:22:36.039Z,44.37
2023-04-09T21:25:03.618Z,47.63
2023-04-09T21:27:31.252Z,39.80
2023-04-09T21:29:58.802Z,42.73
2023-04-09T21:32:26.021Z,37.47
2023-04-09T21:34:53.422Z,46.60
2023-04-09T21:37:20.478Z,41.83
2023-04-09T21:39:48.840Z,49.90
2023-04-09T21:42:16.118Z,37.70
2023-04-09T21:44:43.166Z,38.70
2023-04-09T21:47:12.133Z,37.40
2023-04-09T21:49:40.699Z,31.20
2023-04-09T21:52:14.375Z,31.97
2023-04-09T21:54:43.493Z,38.33
2023-04-09T21:57:11.685Z,32.87
2023-04-09T21:59:41.067Z,32.77
2023-04-09T22:02:08.752Z,31.37
2023-04-09T22:04:36.169Z,33.73
2023-04-09T22:07:04.123Z,33.33
2023-04-09T22:09:31.606Z,32.40
2023-04-09T22:11:59.585Z,34.20
2023-04-09T22:14:29.381Z,34.80
2023-04-09T22:16:58.431Z,38.03
2023-04-09T22:19:26.598Z,37.70
2023-04-09T22:21:54.512Z,33.43
2023-04-09T22:24:29.907Z,34.07
2023-04-09T22:26:59.043Z,33.03
2023-04-09T22:29:27.765Z,32.40
2023-04-09T22:31:55.799Z,31.90
2023-04-09T22:34:23.018Z,34.80
2023-04-09T22:36:50.744Z,36.83
2023-04-09T22:39:18.025Z,34.70
2023-04-09T22:41:45.036Z,30.80
2023-04-09T22:44:12.190Z,34.80
2023-04-09T22:46:39.254Z,38.97
2023-04-09T22:49:06.638Z,31.63
2023-04-09T22:51:37.295Z,28.27
2023-04-09T22:54:05.775Z,31.80
2023-04-09T22:56:33.568Z,31.20
2023-04-09T22:59:00.860Z,28.53
2023-04-09T23:01:28.452Z,32.67
2023-04-09T23:03:55.996Z,33.73
2023-04-09T23:06:25.050Z,32.33
2023-04-09T23:08:52.312Z,32.80
2023-04-09T23:11:19.627Z,35.70
2023-04-09T23:13:46.694Z,32.20
2023-04-09T23:16:14.371Z,36.67
2023-04-09T23:18:41.524Z,44.20
2023-04-09T23:21:10.065Z,33.70
2023-04-09T23:23:39.009Z,35.40
2023-04-09T23:26:06.782Z,35.53
2023-04-09T23:28:33.975Z,31.97
2023-04-09T23:31:01.180Z,33.43
2023-04-09T23:33:28.471Z,33.10
2023-04-09T23:35:55.725Z,41.23
2023-04-09T23:38:22.931Z,40.97
2023-04-09T23:40:50.050Z,31.93
2023-04-09T23:43:17.429Z,34.30
2023-04-09T23:45:44.753Z,32.40
2023-04-09T23:48:12.656Z,31.30
2023-04-09T23:50:41.121Z,26.90
2023-04-09T23:53:08.866Z,30.07
2023-04-09T23:55:41.217Z,30.80
2023-04-09T23:58:09.545Z,36.43
